Time;durP1;ratioP1;P1;durP2;ratioP2;P2;SDS_P1;SDS_P2;PMS_P1;PMS_P2;Temp;Humidity;BMP_temperature;BMP_pressure;BME280_temperature;BME280_humidity;BME280_pressure;Samples;Min_cycle;Max_cycle;Signal;HPM_P1;HPM_P2
2022/04/20 00:00:58;;;;;;;;;24.50;21.00;;;;;;;;5032831;28;45374;-60
2022/04/20 00:03:23;;;;;;;;;13.25;9.00;;;;;;;;5020300;28;45364;-60
2022/04/20 00:05:48;;;;;;;;;20.00;17.00;;;;;;;;5026711;28;45639;-60
2022/04/20 00:08:13;;;;;;;;;22.75;22.25;;;;;;;;5028204;28;45481;-61
2022/04/20 00:10:39;;;;;;;;;18.00;16.50;;;;;;;;5018350;28;45516;-60
2022/04/20 00:13:04;;;;;;;;;25.25;22.00;;;;;;;;5032327;28;45395;-60
2022/04/20 00:15:29;;;;;;;;;25.25;22.25;;;;;;;;5019802;28;46100;-60
2022/04/20 00:17:54;;;;;;;;;26.75;23.75;;;;;;;;5022090;28;45420;-62
2022/04/20 00:20:20;;;;;;;;;22.75;21.50;;;;;;;;5022545;28;45815;-62
2022/04/20 00:22:45;;;;;;;;;23.00;20.00;;;;;;;;5032100;28;45542;-60
2022/04/20 00:25:10;;;;;;;;;23.75;22.25;;;;;;;;5016952;28;46324;-61
2022/04/20 00:27:36;;;;;;;;;26.75;25.25;;;;;;;;5030747;28;46162;-61
2022/04/20 00:30:02;;;;;;;;;30.75;24.50;;;;;;;;5030632;28;45257;-60
2022/04/20 00:32:29;;;;;;;;;29.25;25.00;;;;;;;;5033689;28;45516;-60
2022/04/20 00:34:54;;;;;;;;;30.50;27.25;;;;;;;;5031346;28;45800;-59
2022/04/20 00:37:20;;;;;;;;;29.25;27.25;;;;;;;;5032493;28;45526;-61
2022/04/20 00:39:45;;;;;;;;;32.50;30.75;;;;;;;;5030600;28;45480;-60
2022/04/20 00:42:11;;;;;;;;;36.50;31.00;;;;;;;;5032364;28;45704;-60
2022/04/20 00:44:36;;;;;;;;;25.50;24.00;;;;;;;;5032878;28;45676;-60
2022/04/20 00:47:02;;;;;;;;;30.00;26.00;;;;;;;;5033023;28;45417;-60
2022/04/20 00:49:29;;;;;;;;;33.25;30.25;;;;;;;;5033149;28;45355;-60
2022/04/20 00:51:57;;;;;;;;;29.75;29.75;;;;;;;;5030867;28;45457;-60
2022/04/20 00:54:22;;;;;;;;;31.50;29.75;;;;;;;;5034677;28;45714;-60
2022/04/20 00:56:48;;;;;;;;;35.75;29.50;;;;;;;;5032824;28;45341;-60
2022/04/20 00:59:14;;;;;;;;;36.50;33.25;;;;;;;;5028627;28;45472;-60
2022/04/20 01:01:39;;;;;;;;;35.25;31.50;;;;;;;;5019375;28;45514;-60
2022/04/20 01:04:05;;;;;;;;;33.75;27.25;;;;;;;;5032856;28;45331;-60
2022/04/20 01:06:30;;;;;;;;;33.00;32.00;;;;;;;;5030383;28;46402;-59
2022/04/20 01:08:55;;;;;;;;;34.75;33.25;;;;;;;;5028645;28;45313;-60
2022/04/20 01:11:22;;;;;;;;;33.00;31.50;;;;;;;;5032787;28;45170;-60
2022/04/20 01:13:47;;;;;;;;;34.00;30.75;;;;;;;;5030129;28;46685;-62
2022/04/20 01:16:13;;;;;;;;;30.75;30.00;;;;;;;;5033025;28;45253;-60
2022/04/20 01:18:45;;;;;;;;;35.75;31.75;;;;;;;;5035169;28;45199;-60
2022/04/20 01:21:11;;;;;;;;;42.50;35.00;;;;;;;;5028790;28;45544;-60
2022/04/20 01:23:36;;;;;;;;;38.25;35.25;;;;;;;;5026852;28;46656;-60
2022/04/20 01:26:05;;;;;;;;;34.50;33.25;;;;;;;;5031609;28;45618;-60
2022/04/20 01:28:30;;;;;;;;;40.75;36.00;;;;;;;;5032640;28;45468;-60
2022/04/20 01:30:55;;;;;;;;;42.00;36.25;;;;;;;;5033322;28;45377;-60
2022/04/20 01:33:20;;;;;;;;;40.75;34.50;;;;;;;;5029185;28;46436;-60
2022/04/20 01:35:47;;;;;;;;;37.25;35.00;;;;;;;;5028161;28;45367;-60
2022/04/20 01:38:12;;;;;;;;;44.75;36.00;;;;;;;;5032685;28;45407;-60
2022/04/20 01:40:38;;;;;;;;;38.75;35.25;;;;;;;;5032688;28;45418;-60
2022/04/20 01:43:03;;;;;;;;;39.25;33.00;;;;;;;;5032493;28;46339;-60
2022/04/20 01:45:28;;;;;;;;;47.00;38.00;;;;;;;;5033367;28;45539;-60
2022/04/20 01:47:54;;;;;;;;;42.25;35.75;;;;;;;;5034769;28;45690;-59
2022/04/20 01:50:19;;;;;;;;;39.75;35.00;;;;;;;;5036255;28;45185;-60
2022/04/20 01:52:47;;;;;;;;;40.00;37.00;;;;;;;;5034078;28;45710;-60
2022/04/20 01:55:12;;;;;;;;;46.75;39.75;;;;;;;;5034290;28;45338;-60
2022/04/20 01:57:37;;;;;;;;;41.75;37.25;;;;;;;;5038092;28;45285;-60
2022/04/20 02:00:04;;;;;;;;;50.50;39.75;;;;;;;;5035499;28;45524;-60
2022/04/20 02:02:35;;;;;;;;;49.25;39.50;;;;;;;;5035585;28;45827;-60
2022/04/20 02:05:02;;;;;;;;;51.00;41.75;;;;;;;;5035974;28;45465;-60
2022/04/20 02:07:27;;;;;;;;;49.00;41.00;;;;;;;;5035922;28;45340;-61
2022/04/20 02:09:53;;;;;;;;;43.75;36.00;;;;;;;;5033137;28;45401;-60
2022/04/20 02:12:18;;;;;;;;;45.25;38.50;;;;;;;;5036511;28;46428;-60
2022/04/20 02:14:44;;;;;;;;;49.25;40.00;;;;;;;;5035352;28;45369;-60
2022/04/20 02:17:09;;;;;;;;;47.50;40.25;;;;;;;;5035694;28;45238;-60
2022/04/20 02:19:34;;;;;;;;;51.75;44.00;;;;;;;;5035588;28;45314;-60
2022/04/20 02:21:59;;;;;;;;;51.75;40.50;;;;;;;;5033180;28;46344;-59
2022/04/20 02:24:24;;;;;;;;;49.50;41.75;;;;;;;;5035178;28;45375;-60
2022/04/20 02:26:50;;;;;;;;;53.25;43.00;;;;;;;;5035320;28;45441;-61
2022/04/20 02:29:15;;;;;;;;;50.00;42.00;;;;;;;;5035037;28;45411;-61
2022/04/20 02:31:40;;;;;;;;;57.25;43.75;;;;;;;;5034386;28;48291;-60
2022/04/20 02:34:05;;;;;;;;;53.75;44.00;;;;;;;;5035202;28;45289;-60
2022/04/20 02:36:31;;;;;;;;;51.75;42.00;;;;;;;;5037399;28;45357;-61
2022/04/20 02:38:57;;;;;;;;;48.25;39.50;;;;;;;;5035293;28;45349;-61
2022/04/20 02:41:22;;;;;;;;;54.00;42.75;;;;;;;;5035803;28;45547;-61
2022/04/20 02:43:48;;;;;;;;;58.75;47.75;;;;;;;;5035313;28;45269;-60
2022/04/20 02:46:13;;;;;;;;;51.00;41.25;;;;;;;;5019528;28;45308;-60
2022/04/20 02:48:39;;;;;;;;;56.75;44.75;;;;;;;;5036550;28;45504;-60
2022/04/20 02:51:05;;;;;;;;;52.75;43.00;;;;;;;;5030552;28;48818;-60
2022/04/20 02:53:30;;;;;;;;;57.25;45.75;;;;;;;;5027891;28;45456;-60
2022/04/20 02:55:55;;;;;;;;;56.25;45.75;;;;;;;;5033527;28;45511;-60
2022/04/20 02:58:20;;;;;;;;;57.50;45.50;;;;;;;;5034415;28;45279;-60
2022/04/20 03:00:46;;;;;;;;;56.00;45.75;;;;;;;;5036586;28;45633;-60
2022/04/20 03:03:12;;;;;;;;;53.00;42.00;;;;;;;;5035036;28;45420;-60
2022/04/20 03:05:37;;;;;;;;;55.00;45.75;;;;;;;;5030275;28;45438;-59
2022/04/20 03:08:02;;;;;;;;;56.75;45.75;;;;;;;;5024039;28;45400;-60
2022/04/20 03:10:28;;;;;;;;;55.75;46.75;;;;;;;;5033399;28;46383;-60
2022/04/20 03:12:53;;;;;;;;;56.00;47.00;;;;;;;;5035835;28;45306;-60
2022/04/20 03:15:18;;;;;;;;;51.25;43.00;;;;;;;;5030991;28;45481;-59
2022/04/20 03:17:43;;;;;;;;;56.25;44.00;;;;;;;;5029880;28;45416;-60
2022/04/20 03:20:09;;;;;;;;;54.25;46.25;;;;;;;;5033163;28;46377;-60
2022/04/20 03:22:35;;;;;;;;;53.00;45.25;;;;;;;;5034406;28;45396;-61
2022/04/20 03:25:00;;;;;;;;;56.75;46.50;;;;;;;;5032440;28;45346;-60
2022/04/20 03:27:25;;;;;;;;;54.25;45.50;;;;;;;;5036519;28;45421;-60
2022/04/20 03:29:50;;;;;;;;;39.75;35.75;;;;;;;;5034025;28;45433;-60
2022/04/20 03:32:16;;;;;;;;;60.50;48.25;;;;;;;;5034546;28;45459;-60
2022/04/20 03:34:42;;;;;;;;;59.25;47.75;;;;;;;;5034374;28;45258;-59
2022/04/20 03:37:07;;;;;;;;;61.00;48.50;;;;;;;;5034371;28;45318;-60
2022/04/20 03:39:33;;;;;;;;;57.00;47.50;;;;;;;;5036153;28;46647;-60
2022/04/20 03:41:58;;;;;;;;;59.75;48.75;;;;;;;;5013898;28;45452;-60
2022/04/20 03:44:23;;;;;;;;;58.50;45.25;;;;;;;;5028167;28;45479;-60
2022/04/20 03:46:48;;;;;;;;;61.50;49.75;;;;;;;;5034066;28;45455;-60
2022/04/20 03:49:14;;;;;;;;;49.75;42.00;;;;;;;;5031195;28;47561;-60
2022/04/20 03:51:40;;;;;;;;;62.50;48.25;;;;;;;;5031617;28;46367;-60
2022/04/20 03:54:05;;;;;;;;;58.75;49.50;;;;;;;;5013607;28;45989;-60
2022/04/20 03:57:03;;;;;;;;;62.00;49.25;;;;;;;;5024376;28;45482;-60
2022/04/20 03:59:16;;;;;;;;;50.25;42.00;;;;;;;;5024855;28;45310;-60
2022/04/20 04:01:41;;;;;;;;;59.25;48.75;;;;;;;;5033859;28;45482;-60
2022/04/20 04:04:06;;;;;;;;;59.00;46.25;;;;;;;;5033933;28;45484;-60
2022/04/20 04:06:31;;;;;;;;;60.50;50.50;;;;;;;;5035989;28;45389;-60
2022/04/20 04:08:56;;;;;;;;;55.50;45.25;;;;;;;;5033489;28;45774;-60
2022/04/20 04:11:22;;;;;;;;;56.25;45.25;;;;;;;;5028091;28;46307;-60
2022/04/20 04:13:47;;;;;;;;;62.00;50.50;;;;;;;;5021249;28;45435;-60
2022/04/20 04:16:12;;;;;;;;;65.50;51.25;;;;;;;;5033850;28;45449;-60
2022/04/20 04:18:37;;;;;;;;;63.75;50.25;;;;;;;;5031015;28;48737;-60
2022/04/20 04:21:03;;;;;;;;;64.00;49.75;;;;;;;;5031188;28;45444;-60
2022/04/20 04:23:28;;;;;;;;;63.25;49.75;;;;;;;;5033411;28;45313;-60
2022/04/20 04:25:53;;;;;;;;;62.25;50.25;;;;;;;;5033393;28;45432;-60
2022/04/20 04:28:19;;;;;;;;;62.50;49.75;;;;;;;;5031009;28;45891;-60
2022/04/20 04:30:44;;;;;;;;;58.50;47.25;;;;;;;;5035514;28;45376;-60
2022/04/20 04:33:09;;;;;;;;;62.25;50.25;;;;;;;;5027583;28;45348;-60
2022/04/20 04:35:35;;;;;;;;;66.75;50.75;;;;;;;;5028844;28;45365;-60
2022/04/20 04:38:00;;;;;;;;;63.25;50.00;;;;;;;;5031974;28;45509;-60
2022/04/20 04:40:25;;;;;;;;;64.75;49.50;;;;;;;;5033423;28;45462;-60
2022/04/20 04:42:50;;;;;;;;;59.75;48.75;;;;;;;;5031067;28;45330;-60
2022/04/20 04:50:43;;;;;;;;;59.50;50.00;;;;;;;;5033344;28;45520;-60
2022/04/20 04:53:08;;;;;;;;;65.75;52.25;;;;;;;;5033141;28;46265;-60
2022/04/20 04:55:34;;;;;;;;;71.75;57.25;;;;;;;;5031603;28;45603;-61
2022/04/20 04:57:59;;;;;;;;;69.00;55.00;;;;;;;;5031743;28;47764;-62
2022/04/20 05:00:25;;;;;;;;;63.50;52.00;;;;;;;;5028530;28;45429;-59
2022/04/20 05:02:50;;;;;;;;;68.50;54.25;;;;;;;;5030644;28;45542;-59
2022/04/20 05:05:15;;;;;;;;;66.50;52.00;;;;;;;;5031250;28;45451;-61
2022/04/20 05:07:41;;;;;;;;;66.00;53.50;;;;;;;;5031047;28;46392;-60
2022/04/20 05:10:06;;;;;;;;;63.00;51.75;;;;;;;;5032857;28;45279;-60
2022/04/20 05:12:33;;;;;;;;;66.25;54.50;;;;;;;;5034041;28;45470;-59
2022/04/20 05:14:58;;;;;;;;;65.00;51.75;;;;;;;;5032455;28;47206;-60
2022/04/20 05:17:24;;;;;;;;;63.25;50.50;;;;;;;;5032457;28;45376;-60
2022/04/20 05:19:49;;;;;;;;;61.50;49.25;;;;;;;;5031559;28;45399;-60
2022/04/20 05:22:16;;;;;;;;;70.25;54.75;;;;;;;;5033209;28;45376;-59
2022/04/20 05:24:41;;;;;;;;;61.25;50.50;;;;;;;;5034127;28;45442;-59
2022/04/20 05:27:08;;;;;;;;;74.00;56.25;;;;;;;;5036385;28;46319;-60
2022/04/20 05:29:33;;;;;;;;;62.00;48.50;;;;;;;;5031695;28;45345;-60
2022/04/20 05:31:59;;;;;;;;;63.25;53.00;;;;;;;;5025349;28;45483;-60
2022/04/20 05:34:26;;;;;;;;;68.25;53.75;;;;;;;;5036501;28;45534;-60
2022/04/20 05:42:20;;;;;;;;;63.75;51.25;;;;;;;;5038204;28;45378;-60
2022/04/20 05:44:48;;;;;;;;;64.50;52.75;;;;;;;;5036259;28;45276;-60
2022/04/20 05:47:13;;;;;;;;;68.75;54.00;;;;;;;;5032905;28;47531;-61
2022/04/20 05:49:39;;;;;;;;;68.00;53.00;;;;;;;;5019128;28;45564;-61
2022/04/20 05:52:06;;;;;;;;;63.50;50.50;;;;;;;;5035921;28;45312;-61
2022/04/20 05:54:31;;;;;;;;;68.50;55.25;;;;;;;;5038228;28;45424;-61
2022/04/20 05:56:56;;;;;;;;;65.75;53.75;;;;;;;;5031358;28;46378;-61
2022/04/20 05:59:21;;;;;;;;;68.75;55.00;;;;;;;;5029100;28;45519;-61
2022/04/20 06:01:47;;;;;;;;;67.75;51.25;;;;;;;;5036123;28;45452;-61
2022/04/20 06:04:12;;;;;;;;;64.25;50.75;;;;;;;;5036157;28;45308;-61
2022/04/20 06:06:37;;;;;;;;;67.75;54.75;;;;;;;;5037827;28;46318;-62
2022/04/20 06:09:03;;;;;;;;;63.50;52.75;;;;;;;;5035722;28;45393;-61
2022/04/20 06:11:30;;;;;;;;;65.50;52.75;;;;;;;;5035518;28;45483;-62
2022/04/20 06:13:55;;;;;;;;;69.50;53.75;;;;;;;;5025898;28;45496;-62
2022/04/20 06:16:20;;;;;;;;;69.00;54.25;;;;;;;;5025562;28;46984;-63
2022/04/20 06:18:46;;;;;;;;;66.50;54.00;;;;;;;;5029199;28;45362;-63
2022/04/20 06:21:11;;;;;;;;;69.75;55.50;;;;;;;;5018474;28;45426;-63
2022/04/20 06:23:36;;;;;;;;;63.00;50.75;;;;;;;;5027349;28;45573;-63
2022/04/20 06:26:02;;;;;;;;;62.00;50.25;;;;;;;;5033717;28;46958;-62
2022/04/20 06:28:27;;;;;;;;;62.75;50.00;;;;;;;;5039684;28;45177;-62
2022/04/20 06:30:53;;;;;;;;;67.75;54.50;;;;;;;;5033961;28;45666;-63
2022/04/20 06:33:21;;;;;;;;;70.00;53.00;;;;;;;;5026982;28;45536;-62
2022/04/20 06:35:47;;;;;;;;;67.75;54.00;;;;;;;;5023108;28;48772;-63
2022/04/20 06:38:12;;;;;;;;;61.50;48.75;;;;;;;;5021951;28;45508;-63
2022/04/20 06:40:37;;;;;;;;;68.75;51.75;;;;;;;;5019808;28;45353;-62
2022/04/20 06:43:02;;;;;;;;;63.25;50.50;;;;;;;;5029084;28;45290;-62
2022/04/20 06:45:27;;;;;;;;;66.00;51.75;;;;;;;;5031736;28;46706;-63
2022/04/20 06:47:57;;;;;;;;;64.00;51.50;;;;;;;;5026102;28;45421;-63
2022/04/20 06:50:22;;;;;;;;;70.25;55.50;;;;;;;;5026917;28;45344;-63
2022/04/20 07:00:59;;;;;;;;;61.50;49.25;;;;;;;;5017885;28;45369;-62
2022/04/20 07:03:24;;;;;;;;;58.25;46.75;;;;;;;;5018019;28;45526;-62
2022/04/20 07:05:50;;;;;;;;;65.25;51.75;;;;;;;;5028169;28;47386;-63
2022/04/20 07:08:15;;;;;;;;;64.50;51.25;;;;;;;;5017777;28;45520;-63
2022/04/20 07:10:40;;;;;;;;;63.75;50.75;;;;;;;;5029102;28;45744;-62
2022/04/20 07:13:06;;;;;;;;;64.00;50.00;;;;;;;;5030080;28;45370;-62
2022/04/20 07:15:31;;;;;;;;;64.75;50.00;;;;;;;;5029490;28;45640;-62
2022/04/20 07:17:56;;;;;;;;;61.00;50.00;;;;;;;;5024607;28;45614;-63
2022/04/20 07:20:21;;;;;;;;;64.00;51.00;;;;;;;;5021923;28;45286;-63
2022/04/20 07:22:47;;;;;;;;;59.50;47.00;;;;;;;;5021785;28;45407;-62
2022/04/20 07:25:12;;;;;;;;;65.75;52.50;;;;;;;;5017547;28;45742;-62
2022/04/20 07:27:37;;;;;;;;;60.25;47.50;;;;;;;;5020969;28;45383;-62
2022/04/20 07:30:03;;;;;;;;;53.00;45.00;;;;;;;;5024624;28;45294;-62
2022/04/20 07:32:28;;;;;;;;;56.00;45.50;;;;;;;;5032815;28;45466;-62
2022/04/20 07:34:53;;;;;;;;;54.50;42.75;;;;;;;;5014905;28;45853;-64
2022/04/20 07:37:18;;;;;;;;;52.50;43.75;;;;;;;;5031292;28;45913;-64
2022/04/20 07:39:44;;;;;;;;;50.25;40.75;;;;;;;;5020853;28;45433;-63
2022/04/20 07:42:09;;;;;;;;;52.00;42.75;;;;;;;;5022659;28;45414;-63
2022/04/20 07:44:34;;;;;;;;;48.25;40.25;;;;;;;;5024743;28;46544;-63
2022/04/20 07:46:59;;;;;;;;;48.50;39.50;;;;;;;;5027626;28;45583;-63
2022/04/20 07:52:08;;;;;;;;;46.00;38.50;;;;;;;;5033068;28;45332;-63
2022/04/20 07:54:34;;;;;;;;;45.75;38.25;;;;;;;;5019613;28;45729;-63
2022/04/20 07:56:59;;;;;;;;;47.50;37.25;;;;;;;;5024699;28;45518;-63
2022/04/20 07:59:25;;;;;;;;;43.75;36.75;;;;;;;;5026085;28;45429;-63
2022/04/20 08:01:50;;;;;;;;;49.50;40.00;;;;;;;;5019384;28;45601;-64
2022/04/20 08:04:16;;;;;;;;;44.25;37.50;;;;;;;;5018212;28;45663;-64
2022/04/20 08:06:41;;;;;;;;;46.25;37.50;;;;;;;;5031677;28;45499;-64
2022/04/20 08:09:06;;;;;;;;;44.00;37.00;;;;;;;;5021094;28;45329;-65
2022/04/20 08:11:32;;;;;;;;;47.50;40.25;;;;;;;;5046923;28;47875;-64
2022/04/20 08:14:09;;;;;;;;;46.00;39.25;;;;;;;;5032176;28;46317;-64
2022/04/20 08:16:34;;;;;;;;;45.25;37.25;;;;;;;;5033286;28;45306;-64
2022/04/20 08:19:00;;;;;;;;;41.50;35.75;;;;;;;;5031881;28;45297;-65
2022/04/20 08:21:25;;;;;;;;;46.50;39.00;;;;;;;;5033430;28;45403;-64
2022/04/20 08:23:50;;;;;;;;;38.50;34.25;;;;;;;;5028707;28;47703;-64
2022/04/20 08:26:15;;;;;;;;;46.25;37.50;;;;;;;;5023495;28;45458;-63
2022/04/20 08:28:40;;;;;;;;;43.25;35.50;;;;;;;;5018021;28;45593;-64
2022/04/20 08:31:06;;;;;;;;;49.25;39.50;;;;;;;;5017509;28;45558;-64
2022/04/20 08:33:31;;;;;;;;;39.50;35.75;;;;;;;;5017797;28;46279;-63
2022/04/20 08:35:56;;;;;;;;;38.75;34.50;;;;;;;;5026653;28;45578;-64
2022/04/20 08:38:22;;;;;;;;;31.25;29.00;;;;;;;;5027165;28;45364;-64
2022/04/20 08:40:48;;;;;;;;;32.00;30.25;;;;;;;;5017524;28;45539;-64
2022/04/20 08:43:13;;;;;;;;;29.00;27.75;;;;;;;;5016206;28;47808;-64
2022/04/20 08:45:39;;;;;;;;;25.50;25.50;;;;;;;;5030707;28;45341;-64
2022/04/20 08:48:05;;;;;;;;;26.25;26.25;;;;;;;;5016984;28;45565;-63
2022/04/20 08:50:30;;;;;;;;;29.25;28.75;;;;;;;;5018331;28;45575;-64
2022/04/20 08:52:56;;;;;;;;;31.50;31.00;;;;;;;;5018142;28;45590;-64
2022/04/20 08:55:22;;;;;;;;;27.50;27.50;;;;;;;;5031122;28;45542;-64
2022/04/20 08:57:48;;;;;;;;;30.50;28.25;;;;;;;;5030297;28;45728;-64
2022/04/20 09:00:17;;;;;;;;;31.75;29.75;;;;;;;;5030139;28;45345;-64
2022/04/20 09:02:43;;;;;;;;;35.25;33.50;;;;;;;;5023645;28;47404;-63
2022/04/20 09:05:08;;;;;;;;;30.25;27.00;;;;;;;;5019781;28;45320;-63
2022/04/20 09:07:34;;;;;;;;;31.75;30.75;;;;;;;;5030202;28;45467;-63
2022/04/20 09:10:00;;;;;;;;;34.75;33.25;;;;;;;;5032505;28;45443;-63
2022/04/20 09:12:26;;;;;;;;;30.25;30.25;;;;;;;;5031656;28;47549;-64
2022/04/20 09:14:52;;;;;;;;;20.75;19.25;;;;;;;;5032918;28;45347;-63
2022/04/20 09:17:19;;;;;;;;;30.50;29.50;;;;;;;;5031276;28;45400;-64
2022/04/20 09:19:49;;;;;;;;;31.00;24.25;;;;;;;;5031487;28;45486;-64
2022/04/20 09:22:19;;;;;;;;;25.00;25.00;;;;;;;;5016879;28;46392;-63
2022/04/20 09:24:57;;;;;;;;;24.50;23.50;;;;;;;;5029328;28;45828;-63
2022/04/20 09:27:22;;;;;;;;;30.00;25.75;;;;;;;;5034084;28;45305;-63
2022/04/20 09:29:51;;;;;;;;;27.50;22.75;;;;;;;;5032636;28;45594;-63
2022/04/20 09:32:28;;;;;;;;;23.00;21.25;;;;;;;;5032406;28;45662;-65
2022/04/20 09:34:56;;;;;;;;;24.00;22.25;;;;;;;;5032429;28;45334;-64
2022/04/20 09:37:22;;;;;;;;;22.50;20.00;;;;;;;;5034508;28;45546;-64
2022/04/20 09:39:48;;;;;;;;;20.25;18.50;;;;;;;;5039977;28;45402;-64
2022/04/20 09:42:14;;;;;;;;;19.25;18.50;;;;;;;;5034616;28;45620;-64
2022/04/20 09:44:51;;;;;;;;;26.25;23.25;;;;;;;;5032327;28;45431;-64
2022/04/20 09:50:04;;;;;;;;;22.50;20.50;;;;;;;;5032289;28;45317;-63
2022/04/20 09:52:43;;;;;;;;;18.25;17.00;;;;;;;;5030758;28;46631;-63
2022/04/20 09:55:13;;;;;;;;;17.25;16.25;;;;;;;;5032017;28;45411;-63
2022/04/20 09:57:39;;;;;;;;;18.25;17.50;;;;;;;;5031417;28;45405;-63
2022/04/20 10:00:06;;;;;;;;;22.25;20.50;;;;;;;;5027357;28;45352;-63
2022/04/20 10:02:36;;;;;;;;;16.50;16.00;;;;;;;;5025155;28;45659;-63
2022/04/20 10:05:02;;;;;;;;;16.75;16.25;;;;;;;;5032036;28;45286;-63
2022/04/20 10:07:28;;;;;;;;;15.25;15.25;;;;;;;;5032027;28;45477;-63
2022/04/20 10:09:53;;;;;;;;;17.25;15.25;;;;;;;;5035755;28;45485;-64
2022/04/20 10:12:18;;;;;;;;;16.75;14.50;;;;;;;;5035123;28;45728;-63
2022/04/20 10:17:34;;;;;;;;;15.50;14.75;;;;;;;;5024629;28;45151;-63
2022/04/20 10:20:00;;;;;;;;;18.25;14.75;;;;;;;;5022038;28;45366;-66
2022/04/20 10:22:27;;;;;;;;;15.25;14.25;;;;;;;;5023886;28;47097;-66
2022/04/20 10:24:55;;;;;;;;;12.00;12.00;;;;;;;;5026357;28;45545;-65
2022/04/20 10:27:50;;;;;;;;;11.75;11.75;;;;;;;;5033530;28;45946;-64
2022/04/20 10:30:18;;;;;;;;;13.00;13.00;;;;;;;;5002402;28;46175;-66
2022/04/20 10:32:51;;;;;;;;;13.00;11.75;;;;;;;;4998403;28;45403;-67
2022/04/20 10:35:16;;;;;;;;;12.25;12.25;;;;;;;;5011173;28;46308;-67
2022/04/20 10:38:02;;;;;;;;;11.00;11.00;;;;;;;;4998148;28;45413;-64
2022/04/20 10:40:28;;;;;;;;;10.00;10.00;;;;;;;;5004446;28;45586;-64
2022/04/20 10:43:20;;;;;;;;;9.00;8.00;;;;;;;;4990154;28;48821;-63
2022/04/20 10:46:03;;;;;;;;;9.75;9.75;;;;;;;;5008087;28;45572;-63
2022/04/20 10:48:44;;;;;;;;;11.25;8.50;;;;;;;;5001416;28;45479;-63
2022/04/20 10:51:19;;;;;;;;;9.50;9.50;;;;;;;;4998275;28;45426;-63
2022/04/20 10:53:47;;;;;;;;;9.75;9.75;;;;;;;;5014349;28;45712;-63
2022/04/20 10:56:13;;;;;;;;;8.75;8.75;;;;;;;;5009647;28;45363;-63
2022/04/20 10:58:50;;;;;;;;;6.00;6.00;;;;;;;;4993329;28;45390;-62
2022/04/20 11:01:15;;;;;;;;;5.75;5.75;;;;;;;;5014242;28;45637;-62
2022/04/20 11:03:58;;;;;;;;;7.00;4.75;;;;;;;;5013286;28;46517;-60
2022/04/20 11:06:27;;;;;;;;;6.25;6.25;;;;;;;;5008437;28;45476;-61
2022/04/20 11:08:52;;;;;;;;;7.00;6.25;;;;;;;;5033558;28;45333;-61
2022/04/20 11:19:52;;;;;;;;;5.50;5.50;;;;;;;;5034737;28;45522;-63
2022/04/20 11:22:17;;;;;;;;;9.00;7.50;;;;;;;;5034293;28;45577;-63
2022/04/20 11:24:42;;;;;;;;;5.00;5.00;;;;;;;;5030254;28;45634;-62
2022/04/20 11:27:08;;;;;;;;;6.00;6.00;;;;;;;;5025688;28;45310;-62
2022/04/20 11:29:34;;;;;;;;;6.00;5.00;;;;;;;;5021569;28;45335;-61
2022/04/20 11:32:00;;;;;;;;;6.00;6.00;;;;;;;;5021827;28;45317;-63
2022/04/20 11:34:28;;;;;;;;;3.00;3.00;;;;;;;;5017775;28;46432;-63
2022/04/20 11:36:55;;;;;;;;;4.25;4.00;;;;;;;;5018703;28;45311;-62
2022/04/20 11:39:22;;;;;;;;;6.00;6.00;;;;;;;;5020452;28;45594;-62
2022/04/20 11:41:48;;;;;;;;;5.50;3.75;;;;;;;;5021330;28;45839;-62
2022/04/20 11:44:20;;;;;;;;;4.75;4.75;;;;;;;;5021242;28;46543;-63
2022/04/20 11:46:45;;;;;;;;;4.25;4.25;;;;;;;;5020908;28;45351;-63
2022/04/20 11:49:11;;;;;;;;;6.00;4.25;;;;;;;;5017673;28;45475;-63
2022/04/20 11:51:36;;;;;;;;;3.75;3.00;;;;;;;;5030928;28;45484;-63
2022/04/20 11:54:01;;;;;;;;;4.50;4.00;;;;;;;;5028545;28;45380;-62
2022/04/20 11:56:36;;;;;;;;;5.00;5.00;;;;;;;;5028515;28;45450;-62
2022/04/20 11:59:02;;;;;;;;;4.75;4.75;;;;;;;;5029304;28;45419;-64
2022/04/20 12:01:29;;;;;;;;;4.00;4.00;;;;;;;;5033943;28;45499;-63
2022/04/20 12:03:55;;;;;;;;;3.25;3.25;;;;;;;;5034916;28;45897;-64
2022/04/20 12:06:23;;;;;;;;;4.00;4.00;;;;;;;;5035496;28;45483;-64
2022/04/20 12:08:51;;;;;;;;;5.50;3.75;;;;;;;;5029558;28;45401;-65
2022/04/20 12:11:16;;;;;;;;;3.50;3.50;;;;;;;;5025034;28;45370;-65
2022/04/20 12:13:42;;;;;;;;;3.50;3.50;;;;;;;;5032341;28;47481;-66
2022/04/20 12:16:08;;;;;;;;;3.25;3.25;;;;;;;;5033904;28;45380;-66
2022/04/20 12:18:40;;;;;;;;;3.75;3.75;;;;;;;;5035439;28;45507;-65
2022/04/20 12:21:07;;;;;;;;;2.50;1.00;;;;;;;;5029151;28;45926;-66
2022/04/20 12:23:35;;;;;;;;;3.00;3.00;;;;;;;;5025319;28;47833;-65
2022/04/20 12:26:06;;;;;;;;;5.00;5.00;;;;;;;;5032129;28;46396;-65
2022/04/20 12:28:41;;;;;;;;;4.00;4.00;;;;;;;;5031614;28;45549;-66
2022/04/20 12:31:08;;;;;;;;;4.00;4.00;;;;;;;;5032736;28;45411;-65
2022/04/20 12:33:34;;;;;;;;;3.00;3.00;;;;;;;;5035234;28;45842;-66
2022/04/20 12:36:00;;;;;;;;;6.00;5.50;;;;;;;;5033218;28;47783;-64
2022/04/20 12:38:26;;;;;;;;;4.00;4.00;;;;;;;;5033685;28;45349;-65
2022/04/20 12:40:51;;;;;;;;;5.50;4.00;;;;;;;;5032474;28;45464;-66
2022/04/20 12:43:17;;;;;;;;;4.75;4.00;;;;;;;;5033315;28;47287;-67
2022/04/20 12:45:43;;;;;;;;;4.50;4.50;;;;;;;;5030328;28;46604;-66
2022/04/20 12:48:11;;;;;;;;;4.00;3.00;;;;;;;;5028614;28;45496;-66
2022/04/20 12:50:37;;;;;;;;;6.50;4.25;;;;;;;;5027394;28;45454;-65
2022/04/20 12:53:03;;;;;;;;;6.00;6.00;;;;;;;;5033179;28;46528;-68
2022/04/20 12:55:43;;;;;;;;;5.00;4.00;;;;;;;;5031643;28;45321;-66
2022/04/20 13:03:44;;;;;;;;;3.00;3.00;;;;;;;;5030496;28;45292;-65
2022/04/20 13:06:10;;;;;;;;;2.00;2.00;;;;;;;;5033165;28;45420;-64
2022/04/20 13:08:35;;;;;;;;;2.00;1.00;;;;;;;;5032780;28;45210;-64
2022/04/20 13:11:01;;;;;;;;;2.00;2.00;;;;;;;;5031381;28;45371;-64
2022/04/20 13:13:27;;;;;;;;;1.50;1.50;;;;;;;;5032955;28;45762;-65
2022/04/20 13:15:52;;;;;;;;;1.00;0.00;;;;;;;;5034519;28;45245;-65
2022/04/20 13:18:18;;;;;;;;;2.50;1.25;;;;;;;;5033594;28;45465;-65
2022/04/20 13:20:43;;;;;;;;;2.25;2.00;;;;;;;;5033016;28;45355;-65
2022/04/20 13:23:08;;;;;;;;;2.25;1.75;;;;;;;;5032818;28;46524;-64
2022/04/20 13:28:17;;;;;;;;;1.00;1.00;;;;;;;;5015479;28;45364;-65
2022/04/20 13:30:42;;;;;;;;;1.00;1.00;;;;;;;;5030591;28;45450;-64
2022/04/20 13:33:08;;;;;;;;;1.75;1.75;;;;;;;;5028139;28;48443;-65
2022/04/20 13:35:33;;;;;;;;;3.50;2.00;;;;;;;;5026950;28;45458;-65
2022/04/20 13:37:59;;;;;;;;;2.00;2.00;;;;;;;;5032657;28;45333;-65
2022/04/20 13:40:25;;;;;;;;;1.25;1.25;;;;;;;;5033124;28;45261;-65
2022/04/20 13:42:50;;;;;;;;;2.00;2.00;;;;;;;;5030689;28;48180;-65
2022/04/20 13:45:16;;;;;;;;;3.00;2.00;;;;;;;;5032743;28;45456;-65
2022/04/20 13:47:41;;;;;;;;;1.00;1.00;;;;;;;;5030974;28;45893;-66
2022/04/20 13:50:06;;;;;;;;;2.00;2.00;;;;;;;;5035955;28;45505;-65
2022/04/20 13:52:33;;;;;;;;;3.00;3.00;;;;;;;;5036086;28;45892;-64
2022/04/20 13:55:00;;;;;;;;;2.00;2.00;;;;;;;;5036830;28;46022;-64
2022/04/20 13:57:26;;;;;;;;;2.25;2.25;;;;;;;;5037659;28;45433;-64
2022/04/20 13:59:51;;;;;;;;;2.50;2.50;;;;;;;;5031322;28;45584;-64
2022/04/20 14:02:17;;;;;;;;;0.00;0.00;;;;;;;;5025443;28;46426;-67
2022/04/20 14:04:42;;;;;;;;;2.75;2.75;;;;;;;;5034616;28;45425;-65
2022/04/20 14:07:07;;;;;;;;;1.75;1.75;;;;;;;;5034364;28;45358;-66
2022/04/20 14:09:36;;;;;;;;;2.00;2.00;;;;;;;;5036931;28;45399;-65
2022/04/20 14:12:02;;;;;;;;;19.25;18.25;;;;;;;;5035618;28;46655;-67
2022/04/20 14:14:27;;;;;;;;;23.25;23.25;;;;;;;;5030732;28;45705;-67
2022/04/20 14:16:54;;;;;;;;;20.00;18.00;;;;;;;;5023599;28;45369;-65
2022/04/20 14:19:20;;;;;;;;;3.00;3.00;;;;;;;;5034603;28;45482;-66
2022/04/20 14:21:45;;;;;;;;;2.00;2.00;;;;;;;;5033134;28;46672;-66
2022/04/20 14:24:11;;;;;;;;;4.25;4.25;;;;;;;;5034218;28;45423;-66
2022/04/20 14:32:12;;;;;;;;;3.50;3.50;;;;;;;;5035203;28;45364;-65
2022/04/20 14:34:37;;;;;;;;;18.00;15.50;;;;;;;;5035189;28;45655;-65
2022/04/20 14:37:03;;;;;;;;;8.00;6.00;;;;;;;;5035634;28;46033;-64
2022/04/20 14:39:28;;;;;;;;;1.25;1.25;;;;;;;;5037550;28;45563;-66
2022/04/20 14:41:55;;;;;;;;;11.50;10.00;;;;;;;;5030413;28;46473;-66
2022/04/20 14:44:20;;;;;;;;;7.00;7.00;;;;;;;;5027908;28;45893;-65
2022/04/20 14:46:46;;;;;;;;;4.50;3.00;;;;;;;;5032643;28;45563;-66
2022/04/20 14:49:11;;;;;;;;;3.00;3.00;;;;;;;;5035266;28;45553;-65
2022/04/20 14:51:36;;;;;;;;;2.00;2.00;;;;;;;;5037344;28;45469;-66
2022/04/20 14:54:02;;;;;;;;;2.00;2.00;;;;;;;;5034432;28;45350;-65
2022/04/20 14:56:27;;;;;;;;;6.00;6.00;;;;;;;;5034843;28;45489;-66
2022/04/20 14:58:53;;;;;;;;;24.25;23.00;;;;;;;;5033474;28;45654;-65
2022/04/20 15:01:19;;;;;;;;;6.00;4.00;;;;;;;;5034739;28;46743;-65
2022/04/20 15:03:44;;;;;;;;;10.25;9.00;;;;;;;;5037312;28;45385;-65
2022/04/20 15:06:09;;;;;;;;;6.00;6.00;;;;;;;;5034618;28;45487;-65
2022/04/20 15:08:35;;;;;;;;;2.00;2.00;;;;;;;;5030360;28;45363;-65